createdAt,value
2022-09-20T00:00:22.645Z,99557.91
2022-09-20T00:01:05.690Z,99558.19
2022-09-20T00:01:37.991Z,99552.81
2022-09-20T00:02:12.702Z,99546.31
2022-09-20T00:02:44.908Z,99547.13
2022-09-20T00:03:17.850Z,99540.13
2022-09-20T00:03:54.402Z,99551.13
2022-09-20T00:04:26.528Z,99550.31
2022-09-20T00:04:58.882Z,99548.44
2022-09-20T00:05:36.706Z,99558.13
2022-09-20T00:06:11.191Z,99544.91
2022-09-20T00:06:45.859Z,99543.03
2022-09-20T00:07:17.958Z,99549.22
2022-09-20T00:07:52.683Z,99548.44
2022-09-20T00:08:27.519Z,99544.13
2022-09-20T00:09:01.479Z,99552.75
2022-09-20T00:09:36.332Z,99545.72
2022-09-20T00:10:09.172Z,99544.66
2022-09-20T00:10:41.783Z,99550.84
2022-09-20T00:11:18.687Z,99544.38
2022-09-20T00:11:52.478Z,99543.56
2022-09-20T00:12:24.622Z,99544.38
2022-09-20T00:12:59.378Z,99542.44
2022-09-20T00:13:31.620Z,99538.97
2022-09-20T00:14:06.223Z,99541.34
2022-09-20T00:14:40.901Z,99537.03
2022-09-20T00:15:13.044Z,99542.44
2022-09-20T00:15:46.328Z,99537.56
2022-09-20T00:16:24.116Z,99539.47
2022-09-20T00:16:56.349Z,99542.44
2022-09-20T00:17:28.590Z,99536.75
2022-09-20T00:18:03.468Z,99538.38
2022-09-20T00:18:36.415Z,99540.25
2022-09-20T00:19:09.477Z,99541.34
2022-09-20T00:19:44.318Z,99542.16
2022-09-20T00:20:16.691Z,99545.94
2022-09-20T00:20:50.598Z,99534.34
2022-09-20T00:21:27.607Z,99530.06
2022-09-20T00:21:59.723Z,99537.34
2022-09-20T00:22:31.938Z,99541.94
2022-09-20T00:23:06.647Z,99545.72
2022-09-20T00:23:41.302Z,99541.41
2022-09-20T00:24:13.514Z,99537.13
2022-09-20T00:24:48.845Z,99537.13
2022-09-20T00:25:23.766Z,99535.53
2022-09-20T00:25:57.277Z,99540.41
2022-09-20T00:26:30.097Z,99543.09
2022-09-20T00:27:04.801Z,99535.81
2022-09-20T00:27:36.909Z,99546.91
2022-09-20T00:28:10.701Z,99550.38
2022-09-20T00:28:47.269Z,99535.31
2022-09-20T00:29:19.474Z,99549.09
2022-09-20T00:29:51.579Z,99538.28
2022-09-20T00:30:26.303Z,99546.38
2022-09-20T00:30:58.438Z,99549.88
2022-09-20T00:31:30.742Z,99548.28
2022-09-20T00:32:05.795Z,99548.28
2022-09-20T00:32:38.116Z,99547.47
2022-09-20T00:33:10.239Z,99540.44
2022-09-20T00:33:57.616Z,99533.47
2022-09-20T00:34:44.825Z,99539.44
2022-09-20T00:35:19.764Z,99541.09
2022-09-20T00:35:51.855Z,99539.50
2022-09-20T00:36:24.009Z,99535.69
2022-09-20T00:36:56.187Z,99529.50
2022-09-20T00:37:30.904Z,99544.59
2022-09-20T00:38:03.034Z,99537.91
2022-09-20T00:38:37.724Z,99543.31
2022-09-20T00:39:15.568Z,99536.28
2022-09-20T00:39:47.684Z,99538.47
2022-09-20T00:40:22.349Z,99536.88
2022-09-20T00:40:57.019Z,99537.66
2022-09-20T00:41:30.454Z,99535.28
2022-09-20T00:42:02.649Z,99541.75
2022-09-20T00:42:37.486Z,99539.06
2022-09-20T00:43:14.980Z,99543.91
2022-09-20T00:43:47.461Z,99535.03
2022-09-20T00:44:56.613Z,99536.41
2022-09-20T00:45:30.647Z,99536.47
2022-09-20T00:46:06.918Z,99532.69
2022-09-20T00:46:42.721Z,99537.28
2022-09-20T00:47:22.692Z,99534.88
2022-09-20T00:48:00.229Z,99538.66
2022-09-20T00:48:34.519Z,99535.16
2022-09-20T00:49:12.877Z,99539.75
2022-09-20T00:49:47.955Z,99535.44
2022-09-20T00:50:29.897Z,99533.81
2022-09-20T00:51:08.427Z,99536.84
2022-09-20T00:51:45.996Z,99537.91
2022-09-20T00:52:18.997Z,99529.00
2022-09-20T00:52:56.627Z,99537.09
2022-09-20T00:53:34.388Z,99536.63
2022-09-20T00:54:12.831Z,99538.50
2022-09-20T00:54:46.813Z,99542.91
2022-09-20T00:55:23.061Z,99536.72
2022-09-20T00:55:58.325Z,99532.13
2022-09-20T00:56:34.130Z,99532.94
2022-09-20T00:57:08.987Z,99539.41
2022-09-20T00:57:42.421Z,99537.53
2022-09-20T00:58:15.366Z,99538.34
2022-09-20T00:58:59.283Z,99539.41
2022-09-20T00:59:34.803Z,99535.09
2022-09-20T01:00:10.511Z,99540.50
2022-09-20T01:00:47.200Z,99534.28
2022-09-20T01:01:19.505Z,99531.59
2022-09-20T01:01:56.574Z,99536.72
2022-09-20T01:02:35.142Z,99540.22
2022-09-20T01:03:10.959Z,99534.03
2022-09-20T01:03:46.336Z,99540.22
2022-09-20T01:04:23.194Z,99532.63
2022-09-20T01:04:57.744Z,99531.53
2022-09-20T01:05:32.688Z,99535.31
2022-09-20T01:06:10.087Z,99535.06
2022-09-20T01:06:45.122Z,99543.16
2022-09-20T01:07:25.072Z,99535.84
2022-09-20T01:07:57.942Z,99531.81
2022-09-20T01:08:31.883Z,99538.84
2022-09-20T01:09:11.144Z,99535.06
2022-09-20T01:09:43.269Z,99532.63
2022-09-20T01:10:15.366Z,99528.84
2022-09-20T01:10:50.360Z,99533.16
2022-09-20T01:11:22.584Z,99526.97
2022-09-20T01:11:55.826Z,99533.16
2022-09-20T01:12:34.734Z,99535.84
2022-09-20T01:13:07.229Z,99530.75
2022-09-20T01:13:39.349Z,99535.84
2022-09-20T01:14:16.802Z,99532.06
2022-09-20T01:14:51.769Z,99534.78
2022-09-20T01:15:27.919Z,99538.56
2022-09-20T01:16:05.263Z,99531.28
2022-09-20T01:16:38.105Z,99533.97
2022-09-20T01:17:12.580Z,99535.56
2022-09-20T01:17:51.332Z,99536.06
2022-09-20T01:18:24.251Z,99542.28
2022-09-20T01:18:59.678Z,99536.88
2022-09-20T01:19:42.802Z,99536.06
2022-09-20T01:20:21.029Z,99536.06
2022-09-20T01:20:53.434Z,99538.78
2022-09-20T01:21:29.105Z,99542.28
2022-09-20T01:22:06.823Z,99535.28
2022-09-20T01:22:49.116Z,99535.28
2022-09-20T01:23:48.245Z,99541.25
2022-09-20T01:24:28.478Z,99543.16
2022-09-20T01:25:08.132Z,99542.34
2022-09-20T01:26:14.872Z,99537.22
2022-09-20T01:27:02.200Z,99536.72
2022-09-20T01:27:51.365Z,99536.72
2022-09-20T01:28:24.076Z,99532.94
2022-09-20T01:29:06.074Z,99538.84
2022-09-20T01:29:55.458Z,99534.25
2022-09-20T01:30:36.947Z,99531.81
2022-09-20T01:31:18.404Z,99536.13
2022-09-20T01:31:54.717Z,99538.56
2022-09-20T01:32:40.432Z,99539.06
2022-09-20T01:33:23.586Z,99540.94
2022-09-20T01:34:01.059Z,99523.97
2022-09-20T01:34:39.314Z,99535.28
2022-09-20T01:35:12.414Z,99533.38
2022-09-20T01:35:48.824Z,99525.81
2022-09-20T01:36:27.475Z,99535.50
2022-09-20T01:37:06.764Z,99530.41
2022-09-20T01:37:56.295Z,99531.50
2022-09-20T01:38:40.211Z,99535.28
2022-09-20T01:39:20.702Z,99534.78
2022-09-20T01:40:04.808Z,99533.97
2022-09-20T01:40:44.989Z,99533.97
2022-09-20T01:41:24.071Z,99540.44
2022-09-20T01:42:01.593Z,99537.75
2022-09-20T01:42:37.947Z,99537.75
2022-09-20T01:43:18.800Z,99544.75
2022-09-20T01:43:57.731Z,99545.03
2022-09-20T01:44:38.672Z,99540.72
2022-09-20T01:45:19.995Z,99546.94
2022-09-20T01:45:56.269Z,99541.81
2022-09-20T01:46:31.569Z,99546.94
2022-09-20T01:47:11.242Z,99538.34
2022-09-20T01:47:54.107Z,99532.94
2022-09-20T01:48:34.038Z,99539.41
2022-09-20T01:49:32.302Z,99537.81
2022-09-20T01:50:17.091Z,99543.78
2022-09-20T01:51:11.354Z,99535.97
2022-09-20T01:52:19.191Z,99532.75
2022-09-20T01:53:40.687Z,99529.81
2022-09-20T01:54:50.617Z,99533.09
2022-09-20T01:55:51.851Z,99536.88
2022-09-20T01:56:45.950Z,99532.56
2022-09-20T01:57:47.915Z,99532.56
2022-09-20T01:59:19.432Z,99533.66
2022-09-20T01:59:59.147Z,99539.63
2022-09-20T02:00:41.878Z,99534.75
2022-09-20T02:01:39.251Z,99536.66
2022-09-20T02:02:36.646Z,99539.63
2022-09-20T02:03:38.763Z,99533.72
2022-09-20T02:04:30.222Z,99532.38
2022-09-20T02:05:30.803Z,99538.88
2022-09-20T02:06:14.434Z,99538.88
2022-09-20T02:07:06.158Z,99528.38
2022-09-20T02:08:00.035Z,99528.09
2022-09-20T02:09:00.442Z,99535.38
2022-09-20T02:09:57.056Z,99533.22
2022-09-20T02:10:47.802Z,99534.84
2022-09-20T02:11:21.701Z,99536.47
2022-09-20T02:12:12.149Z,99530.78
2022-09-20T02:12:56.404Z,99535.38
2022-09-20T02:13:31.379Z,99536.97
2022-09-20T02:14:30.123Z,99536.19
2022-09-20T02:15:17.890Z,99534.03
2022-09-20T02:16:22.692Z,99534.03
2022-09-20T02:17:00.311Z,99540.28
2022-09-20T02:17:46.551Z,99533.81
2022-09-20T02:18:36.351Z,99533.81
2022-09-20T02:19:30.442Z,99540.59
2022-09-20T02:20:19.203Z,99538.16
2022-09-20T02:20:58.023Z,99539.25
2022-09-20T02:21:39.159Z,99536.28
2022-09-20T02:22:21.375Z,99538.97
2022-09-20T02:23:23.750Z,99538.75
2022-09-20T02:24:09.626Z,99537.13
2022-09-20T02:24:53.562Z,99541.72
2022-09-20T02:25:43.675Z,99542.00
2022-09-20T02:26:35.859Z,99538.78
2022-09-20T02:27:18.508Z,99535.56
2022-09-20T02:28:07.452Z,99535.56
2022-09-20T02:28:53.196Z,99538.56
2022-09-20T02:29:38.171Z,99546.66
2022-09-20T02:30:22.299Z,99542.34
2022-09-20T02:31:03.258Z,99541.25
2022-09-20T02:32:02.515Z,99544.22
2022-09-20T02:32:54.829Z,99541.00
2022-09-20T02:33:55.495Z,99544.81
2022-09-20T02:34:46.613Z,99543.19
2022-09-20T02:35:35.875Z,99542.88
2022-09-20T02:36:30.150Z,99533.72
2022-09-20T02:37:18.648Z,99542.88
2022-09-20T02:38:21.163Z,99540.50
2022-09-20T02:39:03.019Z,99535.09
2022-09-20T02:39:37.540Z,99541.81
2022-09-20T02:40:27.551Z,99535.88
2022-09-20T02:41:25.882Z,99538.31
2022-09-20T02:42:09.864Z,99542.88
2022-09-20T02:42:47.955Z,99532.91
2022-09-20T02:43:31.694Z,99539.91
2022-09-20T02:44:16.923Z,99529.94
2022-09-20T02:45:03.079Z,99534.53
2022-09-20T02:45:45.027Z,99536.13
2022-09-20T02:46:24.511Z,99538.56
2022-09-20T02:47:07.840Z,99531.25
2022-09-20T02:47:45.104Z,99532.88
2022-09-20T02:48:24.077Z,99540.09
2022-09-20T02:49:02.823Z,99539.81
2022-09-20T02:49:48.823Z,99537.94
2022-09-20T02:50:35.437Z,99538.75
2022-09-20T02:51:21.131Z,99534.94
2022-09-20T02:51:58.300Z,99526.59
2022-09-20T02:52:39.443Z,99538.69
2022-09-20T02:53:29.721Z,99538.69
2022-09-20T02:54:06.955Z,99545.69
2022-09-20T02:54:51.838Z,99541.63
2022-09-20T02:55:35.158Z,99545.13
2022-09-20T02:56:17.759Z,99535.16
2022-09-20T02:57:01.420Z,99537.53
2022-09-20T02:57:42.983Z,99532.16
2022-09-20T02:58:30.966Z,99534.84
2022-09-20T02:59:13.859Z,99535.66
2022-09-20T02:59:54.247Z,99535.66
2022-09-20T03:00:32.954Z,99542.97
2022-09-20T03:01:20.369Z,99538.94
2022-09-20T03:02:04.886Z,99544.31
2022-09-20T03:02:51.502Z,99542.44
2022-09-20T03:03:38.034Z,99537.03
2022-09-20T03:04:23.697Z,99533.00
2022-09-20T03:05:17.175Z,99543.78
2022-09-20T03:05:58.802Z,99549.72
2022-09-20T03:06:40.318Z,99544.59
2022-09-20T03:07:24.185Z,99543.78
2022-09-20T03:08:11.821Z,99544.09
2022-09-20T03:08:54.792Z,99540.88
2022-09-20T03:09:36.967Z,99543.56
2022-09-20T03:10:18.782Z,99538.44
2022-09-20T03:10:58.164Z,99544.94
2022-09-20T03:11:39.703Z,99544.94
2022-09-20T03:12:26.482Z,99537.13
2022-09-20T03:13:17.814Z,99543.88
2022-09-20T03:14:01.887Z,99545.25
2022-09-20T03:14:38.000Z,99540.69
2022-09-20T03:15:25.867Z,99548.50
2022-09-20T03:16:08.974Z,99540.94
2022-09-20T03:16:55.297Z,99541.25
2022-09-20T03:17:36.658Z,99540.94
2022-09-20T03:18:14.059Z,99540.94
2022-09-20T03:18:57.805Z,99544.47
2022-09-20T03:19:43.629Z,99540.94
2022-09-20T03:20:31.718Z,99544.72
2022-09-20T03:21:22.758Z,99532.63
2022-09-20T03:22:06.196Z,99539.66
2022-09-20T03:22:51.431Z,99543.16
2022-09-20T03:23:42.326Z,99539.91
2022-09-20T03:24:28.742Z,99542.84
2022-09-20T03:25:21.433Z,99546.91
2022-09-20T03:25:57.508Z,99547.44
2022-09-20T03:26:49.716Z,99549.03
2022-09-20T03:27:31.701Z,99543.66
2022-09-20T03:28:35.757Z,99543.66
2022-09-20T03:29:20.542Z,99543.16
2022-09-20T03:30:15.310Z,99542.03
2022-09-20T03:30:56.424Z,99552.81
2022-09-20T03:31:51.736Z,99557.94
2022-09-20T03:32:37.256Z,99549.03
2022-09-20T03:33:20.088Z,99552.28
2022-09-20T03:34:05.149Z,99557.66
2022-09-20T03:34:50.897Z,99560.06
2022-09-20T03:35:42.555Z,99557.34
2022-09-20T03:36:35.252Z,99560.84
2022-09-20T03:37:22.594Z,99560.06
2022-09-20T03:38:11.504Z,99563.56
2022-09-20T03:38:59.315Z,99563.06
2022-09-20T03:40:02.100Z,99567.91
2022-09-20T03:41:02.818Z,99566.59
2022-09-20T03:41:49.930Z,99570.09
2022-09-20T03:42:25.837Z,99571.19
2022-09-20T03:43:04.744Z,99569.78
2022-09-20T03:43:55.169Z,99569.78
2022-09-20T03:44:50.747Z,99576.56
2022-09-20T03:45:53.415Z,99575.00
2022-09-20T03:46:27.786Z,99579.31
2022-09-20T03:47:13.793Z,99583.31
2022-09-20T03:48:05.588Z,99577.13
2022-09-20T03:49:26.215Z,99572.88
2022-09-20T03:50:19.835Z,99568.09
2022-09-20T03:51:04.607Z,99580.41
2022-09-20T03:51:51.758Z,99574.75
2022-09-20T03:52:45.000Z,99576.66
2022-09-20T03:53:49.165Z,99572.34
2022-09-20T03:54:53.852Z,99577.72
2022-09-20T03:55:54.791Z,99578.84
2022-09-20T03:56:51.084Z,99579.91
2022-09-20T03:57:40.334Z,99577.78
2022-09-20T03:58:42.827Z,99580.22
2022-09-20T03:59:36.296Z,99583.44
2022-09-20T04:00:20.999Z,99581.03
2022-09-20T04:01:11.288Z,99584.03
2022-09-20T04:02:14.800Z,99578.09
2022-09-20T04:03:04.528Z,99570.59
2022-09-20T04:03:46.154Z,99580.28
2022-09-20T04:04:25.886Z,99579.19
2022-09-20T04:05:03.191Z,99581.09
2022-09-20T04:05:48.209Z,99581.09
2022-09-20T04:06:53.545Z,99582.44
2022-09-20T04:07:39.107Z,99591.59
2022-09-20T04:08:26.425Z,99578.13
2022-09-20T04:09:21.052Z,99583.53
2022-09-20T04:10:24.277Z,99590.00
2022-09-20T04:11:06.154Z,99583.81
2022-09-20T04:11:45.016Z,99590.53
2022-09-20T04:12:30.919Z,99587.56
2022-09-20T04:13:22.095Z,99581.38
2022-09-20T04:14:02.047Z,99579.19
2022-09-20T04:14:43.482Z,99589.41
2022-09-20T04:15:32.536Z,99579.44
2022-09-20T04:16:26.252Z,99585.59
2022-09-20T04:17:05.986Z,99586.41
2022-09-20T04:17:49.803Z,99588.03
2022-09-20T04:18:33.891Z,99586.72
2022-09-20T04:19:15.208Z,99582.09
2022-09-20T04:19:52.612Z,99577.25
2022-09-20T04:20:35.718Z,99585.31
2022-09-20T04:21:14.090Z,99575.59
2022-09-20T04:21:56.332Z,99586.38
2022-09-20T04:22:29.666Z,99581.53
2022-09-20T04:23:14.869Z,99577.44
2022-09-20T04:23:57.983Z,99571.25
2022-09-20T04:24:40.854Z,99582.03
2022-09-20T04:25:21.646Z,99578.25
2022-09-20T04:25:54.186Z,99579.88
2022-09-20T04:26:28.741Z,99579.31
2022-09-20T04:27:06.839Z,99579.84
2022-09-20T04:27:43.557Z,99582.22
2022-09-20T04:28:22.143Z,99580.34
2022-09-20T04:29:02.131Z,99580.34
2022-09-20T04:29:38.379Z,99574.16
2022-09-20T04:30:18.466Z,99579.25
2022-09-20T04:30:57.525Z,99573.06
2022-09-20T04:31:41.464Z,99581.16
2022-09-20T04:32:22.269Z,99580.06
2022-09-20T04:33:02.194Z,99575.75
2022-09-20T04:33:40.190Z,99586.28
2022-09-20T04:34:20.937Z,99579.00
2022-09-20T04:35:18.418Z,99584.38
2022-09-20T04:36:16.139Z,99587.34
2022-09-20T04:36:58.260Z,99587.63
2022-09-20T04:37:33.582Z,99591.66
2022-09-20T04:38:10.775Z,99592.16
2022-09-20T04:38:46.448Z,99583.00
2022-09-20T04:39:30.707Z,99587.31
2022-09-20T04:40:29.819Z,99594.06
2022-09-20T04:41:36.311Z,99591.66
2022-09-20T04:42:45.585Z,99594.63
2022-09-20T04:43:53.862Z,99593.53
2022-09-20T04:44:56.543Z,99592.19
2022-09-20T04:46:00.291Z,99594.91
2022-09-20T04:47:12.059Z,99593.00
2022-09-20T04:48:38.259Z,99594.09
2022-09-20T04:49:54.858Z,99592.19
2022-09-20T04:50:59.909Z,99592.75
2022-09-20T04:52:05.892Z,99599.44
2022-09-20T04:53:12.431Z,99592.97
2022-09-20T04:54:06.640Z,99594.31
2022-09-20T04:55:21.097Z,99595.91
2022-09-20T04:56:03.174Z,99596.16
2022-09-20T04:56:55.238Z,99598.28
2022-09-20T04:57:55.724Z,99594.22
2022-09-20T04:58:42.324Z,99593.94
2022-09-20T04:59:32.273Z,99596.84
2022-09-20T05:00:07.499Z,99594.69
2022-09-20T05:01:01.244Z,99598.44
2022-09-20T05:02:03.740Z,99596.00
2022-09-20T05:03:11.299Z,99595.19
2022-09-20T05:04:25.867Z,99595.19
2022-09-20T05:05:29.808Z,99594.69
2022-09-20T05:06:41.351Z,99587.41
2022-09-20T05:07:39.400Z,99594.41
2022-09-20T05:08:46.869Z,99595.19
2022-09-20T05:09:36.911Z,99596.81
2022-09-20T05:10:30.872Z,99584.66
2022-09-20T05:11:31.295Z,99587.06
2022-09-20T05:12:36.182Z,99596.78
2022-09-20T05:13:22.157Z,99599.69
2022-09-20T05:14:14.131Z,99601.81
2022-09-20T05:15:08.709Z,99597.53
2022-09-20T05:15:53.154Z,99603.97
2022-09-20T05:16:41.967Z,99596.69
2022-09-20T05:17:40.159Z,99602.59
2022-09-20T05:18:36.671Z,99604.19
2022-09-20T05:19:27.507Z,99602.81
2022-09-20T05:20:29.528Z,99591.25
2022-09-20T05:21:23.299Z,99598.53
2022-09-20T05:22:18.489Z,99597.41
2022-09-20T05:23:17.380Z,99596.91
2022-09-20T05:24:15.909Z,99592.31
2022-09-20T05:25:09.339Z,99595.84
2022-09-20T05:26:11.664Z,99591.25
2022-09-20T05:27:02.737Z,99595.53
2022-09-20T05:27:42.324Z,99594.16
2022-09-20T05:28:23.111Z,99595.47
2022-09-20T05:29:03.723Z,99581.72
2022-09-20T05:29:48.226Z,99593.53
2022-09-20T05:30:31.609Z,99592.16
2022-09-20T05:31:12.728Z,99594.28
2022-09-20T05:31:53.154Z,99596.41
2022-09-20T05:32:32.094Z,99593.50
2022-09-20T05:33:15.476Z,99584.00
2022-09-20T05:33:57.529Z,99591.25
2022-09-20T05:34:42.574Z,99593.38
2022-09-20T05:35:23.119Z,99593.59
2022-09-20T05:36:08.211Z,99592.50
2022-09-20T05:36:50.079Z,99588.72
2022-09-20T05:37:37.500Z,99592.22
2022-09-20T05:38:17.190Z,99597.34
2022-09-20T05:38:56.440Z,99592.44
2022-09-20T05:39:36.675Z,99592.69
2022-09-20T05:40:19.171Z,99595.09
2022-09-20T05:41:10.465Z,99594.00
2022-09-20T05:41:52.625Z,99598.00
2022-09-20T05:42:37.566Z,99591.25
2022-09-20T05:43:12.137Z,99590.16
2022-09-20T05:43:54.466Z,99590.66
2022-09-20T05:44:40.779Z,99592.81
2022-09-20T05:45:38.672Z,99593.56
2022-09-20T05:46:21.752Z,99596.81
2022-09-20T05:47:03.960Z,99596.53
2022-09-20T05:47:47.058Z,99597.84
2022-09-20T05:48:26.522Z,99596.44
2022-09-20T05:49:11.067Z,99598.06
2022-09-20T05:49:56.263Z,99604.25
2022-09-20T05:50:39.486Z,99600.47
2022-09-20T05:51:30.238Z,99588.34
2022-09-20T05:52:25.601Z,99594.25
2022-09-20T05:53:10.959Z,99595.56
2022-09-20T05:54:00.677Z,99595.28
2022-09-20T05:55:07.779Z,99596.94
2022-09-20T05:56:06.761Z,99596.09
2022-09-20T05:56:52.596Z,99590.13
2022-09-20T05:57:39.809Z,99591.75
2022-09-20T05:58:29.801Z,99589.56
2022-09-20T05:59:20.788Z,99592.28
2022-09-20T06:00:05.041Z,99589.00
2022-09-20T06:00:49.874Z,99583.31
2022-09-20T06:01:29.946Z,99591.09
2022-09-20T06:02:19.278Z,99586.50
2022-09-20T06:02:59.672Z,99586.50
2022-09-20T06:03:37.479Z,99587.69
2022-09-20T06:04:20.792Z,99588.47
2022-09-20T06:05:01.830Z,99589.28
2022-09-20T06:05:48.719Z,99588.19
2022-09-20T06:06:32.421Z,99590.06
2022-09-20T06:07:19.430Z,99593.59
2022-09-20T06:08:08.846Z,99591.97
2022-09-20T06:09:05.982Z,99590.38
2022-09-20T06:10:10.747Z,99590.66
2022-09-20T06:11:08.693Z,99591.47
2022-09-20T06:12:03.459Z,99593.09
2022-09-20T06:12:48.412Z,99587.38
2022-09-20T06:13:36.488Z,99590.88
2022-09-20T06:14:21.643Z,99592.19
2022-09-20T06:15:02.113Z,99593.00
2022-09-20T06:15:45.029Z,99583.81
2022-09-20T06:16:28.302Z,99586.50
2022-09-20T06:17:14.768Z,99588.94
2022-09-20T06:17:56.468Z,99585.91
2022-09-20T06:18:39.294Z,99587.53
2022-09-20T06:19:23.135Z,99598.34
2022-09-20T06:20:13.275Z,99596.72
2022-09-20T06:20:53.030Z,99589.72
2022-09-20T06:21:42.828Z,99597.84
2022-09-20T06:22:23.612Z,99602.44
2022-09-20T06:22:58.361Z,99597.84
2022-09-20T06:23:34.914Z,99598.34
2022-09-20T06:24:18.826Z,99599.13
2022-09-20T06:25:01.895Z,99592.94
2022-09-20T06:25:43.022Z,99601.03
2022-09-20T06:26:20.823Z,99598.34
2022-09-20T06:26:57.575Z,99602.66
2022-09-20T06:27:38.429Z,99601.56
2022-09-20T06:28:16.454Z,99596.97
2022-09-20T06:28:58.483Z,99595.84
2022-09-20T06:29:35.184Z,99592.94
2022-09-20T06:30:15.248Z,99606.97
2022-09-20T06:30:52.256Z,99604.25
2022-09-20T06:31:24.679Z,99589.13
2022-09-20T06:31:56.971Z,99592.38
2022-09-20T06:32:32.003Z,99594.75
2022-09-20T06:33:15.012Z,99592.88
2022-09-20T06:33:59.094Z,99586.66
2022-09-20T06:34:31.774Z,99594.75
2022-09-20T06:35:08.298Z,99591.78
2022-09-20T06:35:44.134Z,99595.28
2022-09-20T06:36:36.012Z,99595.78
2022-09-20T06:37:33.807Z,99597.97
2022-09-20T06:38:38.278Z,99595.06
2022-09-20T06:39:35.613Z,99592.66
2022-09-20T06:40:35.607Z,99592.38
2022-09-20T06:41:26.229Z,99592.38
2022-09-20T06:42:01.171Z,99595.94
2022-09-20T06:42:34.384Z,99589.94
2022-09-20T06:43:06.837Z,99591.78
2022-09-20T06:43:41.852Z,99591.50
2022-09-20T06:44:14.013Z,99591.19
2022-09-20T06:44:48.717Z,99597.38
2022-09-20T06:45:20.927Z,99593.59
2022-09-20T06:45:53.062Z,99595.22
2022-09-20T06:46:29.051Z,99589.50
2022-09-20T06:47:01.853Z,99595.72
2022-09-20T06:47:38.520Z,99599.22
2022-09-20T06:48:15.330Z,99598.41
2022-09-20T06:48:47.418Z,99599.22
2022-09-20T06:49:19.863Z,99598.13
2022-09-20T06:49:54.556Z,99601.31
2022-09-20T06:50:26.832Z,99603.25
2022-09-20T06:50:59.163Z,99600.25
2022-09-20T06:51:38.052Z,99599.44
2022-09-20T06:52:14.596Z,99601.03
2022-09-20T06:52:47.574Z,99596.44
2022-09-20T06:53:29.895Z,99607.47
2022-09-20T06:54:02.356Z,99593.75
2022-09-20T06:54:37.969Z,99598.88
2022-09-20T06:55:18.529Z,99601.25
2022-09-20T06:55:51.409Z,99599.66
2022-09-20T06:56:29.716Z,99594.25
2022-09-20T06:57:05.111Z,99596.94
2022-09-20T06:57:38.738Z,99595.84
2022-09-20T06:58:13.998Z,99597.75
2022-09-20T06:58:46.230Z,99597.75
2022-09-20T06:59:20.941Z,99588.84
2022-09-20T06:59:53.110Z,99591.25
2022-09-20T07:00:25.249Z,99598.28
2022-09-20T07:01:00.058Z,99592.06
2022-09-20T07:01:32.281Z,99585.84
2022-09-20T07:02:08.350Z,99591.25
2022-09-20T07:02:40.590Z,99588.84
2022-09-20T07:03:13.178Z,99591.25
2022-09-20T07:03:48.108Z,99588.28
2022-09-20T07:04:20.446Z,99587.47
2022-09-20T07:04:59.368Z,99589.09
2022-09-20T07:05:31.581Z,99592.59
2022-09-20T07:06:06.658Z,99584.47
2022-09-20T07:06:38.786Z,99588.78
2022-09-20T07:07:17.362Z,99584.16
2022-09-20T07:07:52.504Z,99585.25
2022-09-20T07:08:27.457Z,99582.28
2022-09-20T07:09:02.170Z,99578.75
2022-09-20T07:09:34.547Z,99581.19
2022-09-20T07:10:07.011Z,99585.50
2022-09-20T07:10:41.807Z,99583.28
2022-09-20T07:11:16.568Z,99582.50
2022-09-20T07:11:51.380Z,99584.91
2022-09-20T07:12:23.482Z,99580.31
2022-09-20T07:12:57.149Z,99581.13
2022-09-20T07:13:31.824Z,99588.41
2022-09-20T07:14:04.075Z,99583.81
2022-09-20T07:14:36.702Z,99586.53
2022-09-20T07:15:10.215Z,99581.41
2022-09-20T07:15:44.911Z,99580.59
2022-09-20T07:16:17.126Z,99583.59
2022-09-20T07:16:49.601Z,99584.38
2022-09-20T07:17:24.342Z,99578.97
2022-09-20T07:17:56.813Z,99578.47
2022-09-20T07:18:31.892Z,99568.75
2022-09-20T07:19:06.077Z,99578.47
2022-09-20T07:19:38.211Z,99579.28
2022-09-20T07:20:15.060Z,99572.00
2022-09-20T07:20:48.667Z,99571.47
2022-09-20T07:21:24.330Z,99574.16
2022-09-20T07:21:56.680Z,99575.25
2022-09-20T07:22:28.861Z,99568.28
2022-09-20T07:23:03.921Z,99565.78
2022-09-20T07:23:38.833Z,99566.59
2022-09-20T07:24:15.191Z,99561.19
2022-09-20T07:24:48.351Z,99563.56
2022-09-20T07:25:20.854Z,99550.59
2022-09-20T07:25:57.920Z,99557.28
2022-09-20T07:26:31.125Z,99553.50
2022-09-20T07:27:05.216Z,99557.00
2022-09-20T07:27:39.888Z,99563.22
2022-09-20T07:28:12.092Z,99571.31
2022-09-20T07:28:44.210Z,99574.63
2022-09-20T07:29:18.906Z,99574.69
2022-09-20T07:29:51.091Z,99584.25
2022-09-20T07:30:26.370Z,99594.09
2022-09-20T07:30:58.607Z,99586.66
2022-09-20T07:31:30.884Z,99585.91
2022-09-20T07:32:05.992Z,99587.84
2022-09-20T07:32:38.116Z,99596.81
2022-09-20T07:33:12.098Z,99598.97
2022-09-20T07:33:47.034Z,99596.81
2022-09-20T07:34:20.551Z,99596.50
2022-09-20T07:34:52.881Z,99586.50
2022-09-20T07:35:27.640Z,99594.75
2022-09-20T07:35:59.795Z,99601.50
2022-09-20T07:36:34.728Z,99587.69
2022-09-20T07:37:06.818Z,99589.50
2022-09-20T07:37:41.482Z,99598.94
2022-09-20T07:38:17.306Z,99591.31
2022-09-20T07:38:53.415Z,99596.44
2022-09-20T07:39:25.856Z,99594.25
2022-09-20T07:40:00.603Z,99589.09
2022-09-20T07:40:32.818Z,99586.88
2022-09-20T07:41:07.783Z,99588.19
2022-09-20T07:41:39.906Z,99592.22
2022-09-20T07:42:12.212Z,99587.00
2022-09-20T07:42:46.917Z,99586.44
2022-09-20T07:43:19.119Z,99589.66
2022-09-20T07:43:51.380Z,99589.34
2022-09-20T07:44:28.048Z,99587.66
2022-09-20T07:45:02.928Z,99587.38
2022-09-20T07:45:41.985Z,99590.59
2022-09-20T07:46:14.279Z,99587.28
2022-09-20T07:46:48.318Z,99588.59
2022-09-20T07:47:25.409Z,99590.44
2022-09-20T07:47:58.335Z,99589.03
2022-09-20T07:48:34.201Z,99587.66
2022-09-20T07:49:09.461Z,99590.84
2022-09-20T07:49:41.628Z,99584.88
2022-09-20T07:50:16.398Z,99591.56
2022-09-20T07:50:51.431Z,99585.56
2022-09-20T07:51:26.186Z,99586.88
2022-09-20T07:51:58.842Z,99590.88
2022-09-20T07:52:31.022Z,99589.50
2022-09-20T07:53:06.611Z,99594.31
2022-09-20T07:53:39.873Z,99585.59
2022-09-20T07:54:17.450Z,99587.72
2022-09-20T07:54:50.179Z,99596.34
2022-09-20T07:55:24.957Z,99589.53
2022-09-20T07:55:58.830Z,99588.66
2022-09-20T07:56:30.918Z,99595.06
2022-09-20T07:57:05.854Z,99588.78
2022-09-20T07:57:38.720Z,99591.69
2022-09-20T07:58:13.387Z,99589.19
2022-09-20T07:58:48.630Z,99589.41
2022-09-20T07:59:24.385Z,99595.81
2022-09-20T07:59:59.034Z,99587.13
2022-09-20T08:00:31.151Z,99590.31
2022-09-20T08:01:10.010Z,99590.50
2022-09-20T08:01:43.170Z,99595.63
2022-09-20T08:02:19.185Z,99593.72
2022-09-20T08:02:59.363Z,99599.34
2022-09-20T08:03:35.634Z,99597.44
2022-09-20T08:04:08.962Z,99602.84
2022-09-20T08:04:43.670Z,99599.84
2022-09-20T08:05:15.875Z,99590.94
2022-09-20T08:05:49.144Z,99595.25
2022-09-20T08:06:23.854Z,99604.47
2022-09-20T08:06:57.149Z,99598.25
2022-09-20T08:07:32.612Z,99593.94
2022-09-20T08:08:04.703Z,99602.03
2022-09-20T08:08:41.222Z,99596.63
2022-09-20T08:09:15.971Z,99592.31
2022-09-20T08:09:50.671Z,99596.16
2022-09-20T08:10:22.763Z,99594.25
2022-09-20T08:11:05.498Z,99595.03
2022-09-20T08:11:38.972Z,99596.16
2022-09-20T08:14:06.150Z,99595.63
2022-09-20T08:14:38.995Z,99591.31
2022-09-20T08:15:14.107Z,99599.94
2022-09-20T08:15:46.302Z,99593.72
2022-09-20T08:16:19.426Z,99593.72